Darstellungsparameter: Aktuell verwendete Einstellungen:
Skalierung der Graphiken ... ?
xyx+y,   Skalierungsfaktor:      Skalierung: Modus: x, Faktor: 1
Darstellungszeitraum ... ?
Vom - - bis: - -   Zeitraum: 24.04.2009 - 26.04.2009
Min/Max/Avg-Anzeige ... ?
Zeige MMA aktuell
Zeige MMA Monat
Zeige MMA alles
Zeige --A aktuell
Zeige --A Monat
Zeige --A alles
Keine MMA-Anzeige
MMA:
Average (ber die Originaldaten)
MMA-Basis: 24.04.2009 - 26.04.2009
Quicknavigation für Darstellung... ?
Tage:      1T, 2T, 3T, 5T -1T -2T -3T -5T +1T +2T +3T +5T
Wochen: 1W, 2W, 3W -1W -2W -3W +1W +2W +3W
Monate: 1M, 3M, 6M -1M -3M -6M +1M +3M +6M
Jahre:    1J, 3J, 5J, 10J -1J -3J -5J -10J +1J +3J +5J +10J
Nutze für die Darstellung ... ?
Originaldaten oder Mittelwerte auf ...
Stundenbasis Tagesbasis Wochenbasis
Monatsbasis Jahresbasis      Datenbasis: Original-Daten
Darstellen als:
Statistik (Auto) Statistik J:M      Darstellung:
Zur Graphik,    zurück zur Übersicht aller Sensoren.
 
Tabellarische Datenbersicht: ?
 
Sensor: Nr:Datum:Temp:Abs-Feuchte:Windchill:Wind:
Aussen-T/F 1 24-04-2009 00:08:32 9 C 5.64 g/m*3 9 C 0 km/h
2 24-04-2009 00:20:32 8.7 C 5.62 g/m*3 8.7 C 0 km/h
3 24-04-2009 00:32:32 8.6 C 5.67 g/m*3 8.6 C 0 km/h
4 24-04-2009 00:44:32 8.5 C 5.72 g/m*3 8.5 C 0 km/h
5 24-04-2009 00:56:32 8.3 C 5.82 g/m*3 8.3 C 0 km/h
6 24-04-2009 01:08:32 8.1 C 5.74 g/m*3 8.1 C 0 km/h
7 24-04-2009 01:20:32 7.9 C 5.75 g/m*3 7.9 C 0 km/h
8 24-04-2009 01:32:32 8.1 C 5.82 g/m*3 8.1 C 0 km/h
9 24-04-2009 01:44:32 8.3 C 5.98 g/m*3 8.3 C 0 km/h
10 24-04-2009 01:56:32 8.2 C 6.03 g/m*3 8.2 C 0 km/h
11 24-04-2009 02:08:32 8.1 C 5.91 g/m*3 8.1 C 0 km/h
12 24-04-2009 02:20:32 8.1 C 5.99 g/m*3 8.1 C 0 km/h
13 24-04-2009 02:32:32 8.2 C 5.95 g/m*3 8.2 C 0 km/h
14 24-04-2009 02:44:32 7.9 C 5.91 g/m*3 7.9 C 0 km/h
15 24-04-2009 02:56:33 7.9 C 6 g/m*3 7.9 C 0 km/h
16 24-04-2009 03:08:33 8 C 5.95 g/m*3 8 C 0 km/h
17 24-04-2009 03:20:33 7.7 C 5.92 g/m*3 7.7 C 0 km/h
18 24-04-2009 03:32:33 7.3 C 5.85 g/m*3 7.3 C 0 km/h
19 24-04-2009 03:44:33 7 C 5.97 g/m*3 7 C 0 km/h
20 24-04-2009 03:56:33 6.6 C 5.96 g/m*3 6.6 C 0 km/h
21 24-04-2009 04:08:33 6.5 C 5.92 g/m*3 6.5 C 0 km/h
22 24-04-2009 04:20:33 6.4 C 5.96 g/m*3 6.4 C 0 km/h
23 24-04-2009 04:32:33 6.7 C 6.23 g/m*3 6.7 C 0 km/h
24 24-04-2009 04:44:33 6.9 C 6.24 g/m*3 6.9 C 0 km/h
25 24-04-2009 04:56:33 7 C 6.2 g/m*3 7 C 0 km/h
Sensor: Nr:Datum:Temp:Abs-Feuchte:Windchill:Wind:
Aussen-T/F 26 24-04-2009 05:08:33 6.9 C 6.24 g/m*3 6.9 C 0 km/h
27 24-04-2009 05:20:33 7 C 6.12 g/m*3 7 C 0 km/h
28 24-04-2009 05:32:33 7 C 6.12 g/m*3 7 C 0 km/h
29 24-04-2009 05:44:33 7.2 C 6.12 g/m*3 7.2 C 0 km/h
30 24-04-2009 05:56:33 7.1 C 6.01 g/m*3 7.1 C 0 km/h
31 24-04-2009 06:08:33 7 C 5.97 g/m*3 7 C 0 km/h
32 24-04-2009 06:20:33 7 C 5.97 g/m*3 7 C 0 km/h
33 24-04-2009 06:32:31 6.8 C 6.04 g/m*3 6.8 C 0 km/h
34 24-04-2009 06:44:31 6.9 C 6.08 g/m*3 6.9 C 0 km/h
35 24-04-2009 06:56:31 6.9 C 6 g/m*3 6.9 C 0 km/h
36 24-04-2009 07:08:31 6.9 C 6 g/m*3 6.9 C 0 km/h
37 24-04-2009 07:20:30 6.9 C 6 g/m*3 6.9 C 0 km/h
38 24-04-2009 07:32:31 7 C 6.04 g/m*3 7 C 0 km/h
39 24-04-2009 07:44:30 7.1 C 6.08 g/m*3 7.1 C 0 km/h
40 24-04-2009 07:56:30 7.3 C 6.16 g/m*3 7.3 C 0 km/h
41 24-04-2009 08:08:30 7.4 C 6.2 g/m*3 7.4 C 0 km/h
42 24-04-2009 08:20:30 7.6 C 6.2 g/m*3 7.6 C 0 km/h
43 24-04-2009 08:32:30 7.9 C 6.32 g/m*3 7.9 C 0 km/h
44 24-04-2009 08:44:29 8.1 C 6.16 g/m*3 8.1 C 0 km/h
45 24-04-2009 08:56:29 8.3 C 6.15 g/m*3 8.3 C 0 km/h
46 24-04-2009 09:08:29 8.7 C 6.23 g/m*3 8.7 C 0 km/h
47 24-04-2009 09:20:30 9.1 C 6.03 g/m*3 9.1 C 0 km/h
48 24-04-2009 09:32:29 9.5 C 6.01 g/m*3 9.5 C 0 km/h
49 24-04-2009 09:44:29 9.9 C 5.98 g/m*3 9.9 C 0 km/h
50 24-04-2009 09:56:29 10.4 C 5.98 g/m*3 10.4 C 0 km/h
Sensor: Nr:Datum:Temp:Abs-Feuchte:Windchill:Wind:
Aussen-T/F 51 24-04-2009 10:08:29 10.8 C 5.83 g/m*3 10.8 C 0 km/h
52 24-04-2009 10:20:29 11.3 C 5.81 g/m*3 11.3 C 0 km/h
53 24-04-2009 10:32:29 11.8 C 5.79 g/m*3 11.8 C 0 km/h
54 24-04-2009 10:44:29 12.4 C 5.68 g/m*3 12.4 C 0 km/h
55 24-04-2009 10:56:29 13 C 5.44 g/m*3 13 C 0 km/h
56 24-04-2009 11:08:29 13.3 C 5.31 g/m*3 13.3 C 0 km/h
57 24-04-2009 11:20:28 13.8 C 5.36 g/m*3 13.8 C 0 km/h
58 24-04-2009 11:32:28 14.3 C 5.41 g/m*3 14.3 C 0 km/h
59 24-04-2009 11:44:28 14.8 C 5.32 g/m*3 14.8 C 0 km/h
60 24-04-2009 11:56:28 15.3 C 5.09 g/m*3 15.3 C 0 km/h
61 24-04-2009 12:08:28 15.5 C 5.02 g/m*3 15.5 C 0 km/h
62 24-04-2009 12:20:27 15.6 C 4.79 g/m*3 15.6 C 0 km/h
63 24-04-2009 12:32:28 16.2 C 4.83 g/m*3 16.2 C 0 km/h
64 24-04-2009 12:44:27 16.8 C 4.72 g/m*3 16.8 C 0 km/h
65 24-04-2009 12:56:27 17.4 C 4.45 g/m*3 17.4 C 0 km/h
66 24-04-2009 13:08:27 18.3 C 3.91 g/m*3 18.3 C 0 km/h
67 24-04-2009 13:20:28 19.2 C 3.3 g/m*3 19.2 C 0 km/h
68 24-04-2009 13:32:27 19.6 C 3.38 g/m*3 19.6 C 0 km/h
69 24-04-2009 13:44:27 19.6 C 3.38 g/m*3 19.6 C 0 km/h
70 24-04-2009 13:56:27 19.5 C 3.36 g/m*3 19.5 C 0 km/h
71 24-04-2009 14:08:27 19.9 C 3.44 g/m*3 19.9 C 0 km/h
72 24-04-2009 14:20:27 20.6 C 3.58 g/m*3 20.6 C 0 km/h
73 24-04-2009 14:32:26 21 C 3.66 g/m*3 21 C 0 km/h
74 24-04-2009 14:44:26 20.8 C 3.62 g/m*3 20.8 C 0 km/h
75 24-04-2009 14:56:26 21 C 3.66 g/m*3 21 C 0 km/h
Sensor: Nr:Datum:Temp:Abs-Feuchte:Windchill:Wind:
Aussen-T/F 76 24-04-2009 15:08:26 21.8 C 3.84 g/m*3 21.8 C 0 km/h
77 24-04-2009 15:20:26 22.3 C 3.95 g/m*3 22.3 C 0 km/h
78 24-04-2009 15:32:26 22.8 C 4.06 g/m*3 22.8 C 0 km/h
79 24-04-2009 15:44:26 22.9 C 4.09 g/m*3 22.9 C 0 km/h
80 24-04-2009 15:56:26 23.7 C 4.28 g/m*3 23.7 C 0 km/h
81 24-04-2009 16:08:26 23.1 C 4.13 g/m*3 23.1 C 0 km/h
82 24-04-2009 16:20:25 24.2 C 4.4 g/m*3 24.2 C 0 km/h
83 24-04-2009 16:32:25 24 C 4.35 g/m*3 24 C 0 km/h
84 24-04-2009 16:44:25 24.4 C 4.45 g/m*3 24.4 C 0 km/h
85 24-04-2009 16:56:25 23.6 C 4.25 g/m*3 23.6 C 0 km/h
86 24-04-2009 17:08:25 23.6 C 4.25 g/m*3 23.6 C 0 km/h
87 24-04-2009 17:20:24 24.1 C 4.38 g/m*3 24.1 C 0 km/h
88 24-04-2009 17:32:25 24.2 C 4.4 g/m*3 24.2 C 0 km/h
89 24-04-2009 17:44:24 24.4 C 4.45 g/m*3 24.4 C 0 km/h
90 24-04-2009 17:56:24 24.5 C 4.48 g/m*3 24.5 C 0 km/h
91 24-04-2009 18:08:24 24.8 C 4.55 g/m*3 24.8 C 0 km/h
92 24-04-2009 18:20:25 24.2 C 4.4 g/m*3 24.2 C 0 km/h
93 24-04-2009 18:32:24 24.2 C 4.4 g/m*3 24.2 C 0 km/h
94 24-04-2009 18:44:24 24.5 C 4.48 g/m*3 24.5 C 0 km/h
95 24-04-2009 18:56:24 24.4 C 4.45 g/m*3 24.4 C 0 km/h
96 24-04-2009 19:08:24 24.1 C 4.38 g/m*3 24.1 C 0 km/h
97 24-04-2009 19:20:24 24.1 C 4.38 g/m*3 24.1 C 0 km/h
98 24-04-2009 19:32:23 22.9 C 4.09 g/m*3 22.9 C 0 km/h
99 24-04-2009 19:44:24 22.7 C 4.04 g/m*3 22.7 C 0 km/h
100 24-04-2009 19:56:24 22.2 C 4.32 g/m*3 22.2 C 0 km/h
Sensor: Nr:Datum:Temp:Abs-Feuchte:Windchill:Wind:
Aussen-T/F 101 24-04-2009 20:08:23 20.9 C 4.55 g/m*3 20.9 C 0 km/h
102 24-04-2009 20:20:23 19.6 C 4.9 g/m*3 19.6 C 0 km/h
103 24-04-2009 20:32:23 18.4 C 4.88 g/m*3 18.4 C 0 km/h
104 24-04-2009 20:44:23 17.3 C 4.86 g/m*3 17.3 C 0 km/h
105 24-04-2009 20:56:23 16.6 C 4.94 g/m*3 16.6 C 0 km/h
106 24-04-2009 21:08:23 15.9 C 5.01 g/m*3 15.9 C 0 km/h
107 24-04-2009 21:20:23 15.4 C 4.99 g/m*3 15.4 C 0 km/h
108 24-04-2009 21:32:22 15.1 C 5.16 g/m*3 15.1 C 0 km/h
109 24-04-2009 21:44:22 15 C 5.13 g/m*3 15 C 0 km/h
110 24-04-2009 21:56:22 14.8 C 5.19 g/m*3 14.8 C 0 km/h
111 24-04-2009 22:09:22 14.5 C 5.22 g/m*3 14.5 C 0 km/h
112 24-04-2009 22:21:22 14.2 C 5.25 g/m*3 14.2 C 0 km/h
113 24-04-2009 22:33:22 14.1 C 5.46 g/m*3 14.1 C 0 km/h
114 24-04-2009 22:45:23 14 C 5.31 g/m*3 14 C 0 km/h
115 24-04-2009 22:57:23 13.7 C 5.33 g/m*3 13.7 C 0 km/h
116 24-04-2009 23:09:23 13.3 C 5.43 g/m*3 13.3 C 0 km/h
117 24-04-2009 23:21:23 13.1 C 5.48 g/m*3 13.1 C 0 km/h
118 24-04-2009 23:33:23 13.1 C 5.71 g/m*3 13.1 C 0 km/h
119 24-04-2009 23:45:23 12.8 C 5.82 g/m*3 12.8 C 0 km/h
120 24-04-2009 23:57:23 12.4 C 5.79 g/m*3 12.4 C 0 km/h
121 25-04-2009 00:09:23 12.2 C 5.83 g/m*3 12.2 C 0 km/h
122 25-04-2009 00:21:23 11.9 C 6.04 g/m*3 11.9 C 0 km/h
123 25-04-2009 00:33:23 11.4 C 6.06 g/m*3 11.4 C 0 km/h
124 25-04-2009 00:45:23 11.3 C 6.12 g/m*3 11.3 C 0 km/h
125 25-04-2009 00:57:23 11 C 6.01 g/m*3 11 C 0 km/h
Sensor: Nr:Datum:Temp:Abs-Feuchte:Windchill:Wind:
Aussen-T/F 126 25-04-2009 01:09:23 10.9 C 6.07 g/m*3 10.9 C 0 km/h
127 25-04-2009 01:21:23 10.7 C 6.09 g/m*3 10.7 C 0 km/h
128 25-04-2009 01:33:23 10.4 C 6.07 g/m*3 10.4 C 0 km/h
129 25-04-2009 01:45:23 10.3 C 6.03 g/m*3 10.3 C 0 km/h
130 25-04-2009 01:57:23 10.1 C 6.05 g/m*3 10.1 C 0 km/h
131 25-04-2009 02:09:23 9.8 C 6.12 g/m*3 9.8 C 0 km/h
132 25-04-2009 02:21:23 9.6 C 6.05 g/m*3 9.6 C 0 km/h
133 25-04-2009 02:33:23 9.4 C 6.15 g/m*3 9.4 C 0 km/h
134 25-04-2009 02:45:24 9.1 C 6.12 g/m*3 9.1 C 0 km/h
135 25-04-2009 02:57:24 8.9 C 6.22 g/m*3 8.9 C 0 km/h
136 25-04-2009 03:09:24 8.7 C 6.14 g/m*3 8.7 C 0 km/h
137 25-04-2009 03:21:24 8.6 C 6.1 g/m*3 8.6 C 0 km/h
138 25-04-2009 03:33:24 8.4 C 6.11 g/m*3 8.4 C 0 km/h
139 25-04-2009 03:45:24 8.4 C 6.11 g/m*3 8.4 C 0 km/h
140 25-04-2009 03:57:24 8.1 C 6.07 g/m*3 8.1 C 0 km/h
141 25-04-2009 04:09:24 8.2 C 6.2 g/m*3 8.2 C 0 km/h
142 25-04-2009 04:21:24 8.1 C 6.57 g/m*3 8.1 C 0 km/h
143 25-04-2009 04:33:24 7.8 C 6.86 g/m*3 7.8 C 0 km/h
144 25-04-2009 04:45:24 7.3 C 6.79 g/m*3 7.3 C 0 km/h
145 25-04-2009 04:57:24 7.4 C 6.92 g/m*3 7.4 C 0 km/h
146 25-04-2009 05:09:24 7.3 C 6.87 g/m*3 7.3 C 0 km/h
147 25-04-2009 05:21:24 7.4 C 7 g/m*3 7.4 C 0 km/h
148 25-04-2009 05:33:24 7.2 C 6.91 g/m*3 7.2 C 0 km/h
149 25-04-2009 05:45:24 6.9 C 6.77 g/m*3 6.9 C 0 km/h
150 25-04-2009 05:57:24 6.9 C 6.77 g/m*3 6.9 C 0 km/h
Sensor: Nr:Datum:Temp:Abs-Feuchte:Windchill:Wind:
Aussen-T/F 151 25-04-2009 06:09:24 6.6 C 6.64 g/m*3 6.6 C 0 km/h
152 25-04-2009 06:21:24 6.5 C 6.6 g/m*3 6.5 C 0 km/h
153 25-04-2009 06:33:24 6.4 C 6.56 g/m*3 6.4 C 0 km/h
154 25-04-2009 06:45:24 6.4 C 6.56 g/m*3 6.4 C 0 km/h
155 25-04-2009 06:57:25 6.3 C 6.51 g/m*3 6.3 C 0 km/h
156 25-04-2009 07:09:25 6.3 C 6.51 g/m*3 6.3 C 0 km/h
157 25-04-2009 07:21:22 6.4 C 6.63 g/m*3 6.4 C 0 km/h
158 25-04-2009 07:33:22 6.5 C 6.67 g/m*3 6.5 C 0 km/h
159 25-04-2009 07:45:21 6.7 C 6.76 g/m*3 6.7 C 0 km/h
160 25-04-2009 07:57:21 7 C 6.82 g/m*3 7 C 0 km/h
161 25-04-2009 08:09:22 7.1 C 6.94 g/m*3 7.1 C 0 km/h
162 25-04-2009 08:21:21 7.5 C 7.12 g/m*3 7.5 C 0 km/h
163 25-04-2009 08:33:21 7.7 C 7.22 g/m*3 7.7 C 0 km/h
164 25-04-2009 08:45:21 8 C 7.28 g/m*3 8 C 0 km/h
165 25-04-2009 08:57:21 8.5 C 7.51 g/m*3 8.5 C 0 km/h
166 25-04-2009 09:09:20 8.9 C 7.62 g/m*3 8.9 C 0 km/h
167 25-04-2009 09:21:21 9.6 C 7.88 g/m*3 9.6 C 0 km/h
168 25-04-2009 09:33:20 10.4 C 8.1 g/m*3 10.4 C 0 km/h
169 25-04-2009 09:45:20 11.3 C 8.16 g/m*3 11.3 C 0 km/h
170 25-04-2009 09:57:20 12.1 C 8.26 g/m*3 12.1 C 0 km/h
171 25-04-2009 10:09:20 13 C 7.94 g/m*3 13 C 0 km/h
172 25-04-2009 10:21:20 14.1 C 6.67 g/m*3 14.1 C 0 km/h
173 25-04-2009 10:33:20 15.3 C 6.01 g/m*3 15.3 C 0 km/h
174 25-04-2009 10:45:20 15.8 C 6.06 g/m*3 15.8 C 0 km/h
175 25-04-2009 10:57:20 16.3 C 5.97 g/m*3 16.3 C 0 km/h
Sensor: Nr:Datum:Temp:Abs-Feuchte:Windchill:Wind:
Aussen-T/F 176 25-04-2009 11:09:20 16.9 C 6.04 g/m*3 16.9 C 0 km/h
177 25-04-2009 11:21:19 16.6 C 6.07 g/m*3 16.6 C 0 km/h
178 25-04-2009 11:33:19 16.6 C 6.22 g/m*3 16.6 C 0 km/h
179 25-04-2009 11:45:19 16.3 C 6.24 g/m*3 16.3 C 0 km/h
180 25-04-2009 11:57:19 17.3 C 6.33 g/m*3 17.3 C 0 km/h
181 25-04-2009 12:09:19 17.8 C 6.37 g/m*3 17.8 C 0 km/h
182 25-04-2009 12:21:18 17.6 C 6.45 g/m*3 17.6 C 0 km/h
183 25-04-2009 12:33:19 18.1 C 6.49 g/m*3 18.1 C 0 km/h
184 25-04-2009 12:45:19 18.3 C 6.41 g/m*3 18.3 C 0 km/h
185 25-04-2009 12:57:19 18.5 C 6.49 g/m*3 18.5 C 0 km/h
186 25-04-2009 13:09:18 18.8 C 6.44 g/m*3 18.8 C 0 km/h
187 25-04-2009 13:21:19 18.9 C 6.32 g/m*3 18.9 C 0 km/h
188 25-04-2009 13:33:18 19.5 C 6.38 g/m*3 19.5 C 0 km/h
189 25-04-2009 13:45:18 19.6 C 6.42 g/m*3 19.6 C 0 km/h
190 25-04-2009 13:57:18 19.9 C 6.53 g/m*3 19.9 C 0 km/h
191 25-04-2009 14:09:18 20.3 C 6.51 g/m*3 20.3 C 0 km/h
192 25-04-2009 14:21:18 20.3 C 6.51 g/m*3 20.3 C 0 km/h
193 25-04-2009 14:33:17 20.9 C 6.74 g/m*3 20.9 C 0 km/h
194 25-04-2009 14:45:17 20.7 C 6.48 g/m*3 20.7 C 0 km/h
195 25-04-2009 14:57:17 19.9 C 6.36 g/m*3 19.9 C 0 km/h
196 25-04-2009 15:09:17 19.5 C 6.55 g/m*3 19.5 C 0 km/h
197 25-04-2009 15:21:17 19.9 C 6.53 g/m*3 19.9 C 0 km/h
198 25-04-2009 15:33:17 20.8 C 6.34 g/m*3 20.8 C 0 km/h
199 25-04-2009 15:45:17 21.7 C 6.29 g/m*3 21.7 C 0 km/h
200 25-04-2009 15:57:17 21.8 C 6.14 g/m*3 21.8 C 0 km/h
Sensor: Nr:Datum:Temp:Abs-Feuchte:Windchill:Wind:
Aussen-T/F 201 25-04-2009 16:09:17 21.5 C 6.03 g/m*3 21.5 C 0 km/h
202 25-04-2009 16:21:16 21.6 C 6.07 g/m*3 21.6 C 0 km/h
203 25-04-2009 16:33:16 22 C 6.02 g/m*3 22 C 0 km/h
204 25-04-2009 16:45:16 21 C 6.23 g/m*3 21 C 0 km/h
205 25-04-2009 16:57:16 20.9 C 6.37 g/m*3 20.9 C 0 km/h
206 25-04-2009 17:09:16 20.9 C 6.56 g/m*3 20.9 C 0 km/h
207 25-04-2009 17:21:15 20.6 C 6.44 g/m*3 20.6 C 0 km/h
208 25-04-2009 17:33:16 21.4 C 6.37 g/m*3 21.4 C 0 km/h
209 25-04-2009 17:45:16 22.1 C 6.05 g/m*3 22.1 C 0 km/h
210 25-04-2009 17:57:16 22.7 C 6.26 g/m*3 22.7 C 0 km/h
211 25-04-2009 18:09:15 22.4 C 6.16 g/m*3 22.4 C 0 km/h
212 25-04-2009 18:21:16 22.7 C 6.26 g/m*3 22.7 C 0 km/h
213 25-04-2009 18:33:15 22.4 C 6.16 g/m*3 22.4 C 0 km/h
214 25-04-2009 18:45:15 22.9 C 6.34 g/m*3 22.9 C 0 km/h
215 25-04-2009 18:57:15 22.6 C 6.03 g/m*3 22.6 C 0 km/h
216 25-04-2009 19:09:15 23.2 C 6.24 g/m*3 23.2 C 0 km/h
217 25-04-2009 19:21:15 23.7 C 6.42 g/m*3 23.7 C 0 km/h
218 25-04-2009 19:33:15 23.2 C 6.24 g/m*3 23.2 C 0 km/h
219 25-04-2009 19:45:15 22.2 C 6.87 g/m*3 22.2 C 0 km/h
220 25-04-2009 19:57:15 21.2 C 7.04 g/m*3 21.2 C 0 km/h
221 25-04-2009 20:09:14 20.2 C 7.17 g/m*3 20.2 C 0 km/h
222 25-04-2009 20:21:14 19.3 C 7.3 g/m*3 19.3 C 0 km/h
223 25-04-2009 20:33:14 18.6 C 7.48 g/m*3 18.6 C 0 km/h
224 25-04-2009 20:45:14 18.2 C 7.46 g/m*3 18.2 C 0 km/h
225 25-04-2009 20:57:14 17.6 C 7.35 g/m*3 17.6 C 0 km/h
Sensor: Nr:Datum:Temp:Abs-Feuchte:Windchill:Wind:
Aussen-T/F 226 25-04-2009 21:09:14 17.2 C 7.32 g/m*3 17.2 C 0 km/h
227 25-04-2009 21:21:14 17 C 7.52 g/m*3 17 C 0 km/h
228 25-04-2009 21:33:13 17 C 7.52 g/m*3 17 C 0 km/h
229 25-04-2009 21:45:14 17 C 7.52 g/m*3 17 C 0 km/h
230 25-04-2009 21:57:14 17 C 7.52 g/m*3 17 C 0 km/h
231 25-04-2009 22:10:14 16.5 C 7.58 g/m*3 16.5 C 0 km/h
232 25-04-2009 22:22:14 16.4 C 7.54 g/m*3 16.4 C 0 km/h
233 25-04-2009 22:34:14 16.1 C 7.54 g/m*3 16.1 C 0 km/h
234 25-04-2009 22:46:14 16.1 C 7.54 g/m*3 16.1 C 0 km/h
235 25-04-2009 22:58:14 16 C 7.63 g/m*3 16 C 0 km/h
236 25-04-2009 23:10:14 15.6 C 7.98 g/m*3 15.6 C 0 km/h
237 25-04-2009 23:22:14 15.1 C 7.87 g/m*3 15.1 C 0 km/h
238 25-04-2009 23:34:14 14.9 C 7.9 g/m*3 14.9 C 0 km/h
239 25-04-2009 23:46:15 15 C 7.82 g/m*3 15 C 0 km/h
240 25-04-2009 23:58:15 14.9 C 8.03 g/m*3 14.9 C 0 km/h
241 26-04-2009 00:10:15 14.8 C 7.98 g/m*3 14.8 C 0 km/h
242 26-04-2009 00:22:15 14.9 C 8.16 g/m*3 14.9 C 0 km/h
243 26-04-2009 00:34:15 14.8 C 8.11 g/m*3 14.8 C 0 km/h
244 26-04-2009 00:46:15 14.8 C 8.23 g/m*3 14.8 C 0 km/h
245 26-04-2009 00:58:15 14.7 C 8.18 g/m*3 14.7 C 0 km/h
246 26-04-2009 01:10:15 14.2 C 8.06 g/m*3 14.2 C 0 km/h
247 26-04-2009 01:22:15 14 C 8.08 g/m*3 14 C 0 km/h
248 26-04-2009 01:34:15 14 C 8.2 g/m*3 14 C 0 km/h
249 26-04-2009 01:46:15 14.1 C 8.25 g/m*3 14.1 C 0 km/h
250 26-04-2009 01:58:15 14 C 8.08 g/m*3 14 C 0 km/h
Sensor: Nr:Datum:Temp:Abs-Feuchte:Windchill:Wind:
Aussen-T/F 251 26-04-2009 02:10:15 14.1 C 8.25 g/m*3 14.1 C 0 km/h
252 26-04-2009 02:22:15 14 C 8.2 g/m*3 14 C 0 km/h
253 26-04-2009 02:34:15 14 C 8.2 g/m*3 14 C 0 km/h
254 26-04-2009 02:46:15 14 C 8.08 g/m*3 14 C 0 km/h
255 26-04-2009 02:58:15 13.9 C 8.15 g/m*3 13.9 C 0 km/h
256 26-04-2009 03:10:15 13.8 C 8.22 g/m*3 13.8 C 0 km/h
257 26-04-2009 03:22:15 13.7 C 8.17 g/m*3 13.7 C 0 km/h
258 26-04-2009 03:34:15 13.6 C 8.12 g/m*3 13.6 C 0 km/h
259 26-04-2009 03:46:16 13.5 C 8.07 g/m*3 13.5 C 0 km/h
260 26-04-2009 03:58:16 13.4 C 8.14 g/m*3 13.4 C 0 km/h
261 26-04-2009 04:10:16 13.4 C 8.25 g/m*3 13.4 C 0 km/h
262 26-04-2009 04:22:16 13.3 C 8.2 g/m*3 13.3 C 0 km/h
263 26-04-2009 04:34:16 13.2 C 8.15 g/m*3 13.2 C 0 km/h
264 26-04-2009 04:46:16 13 C 8.05 g/m*3 13 C 0 km/h
265 26-04-2009 04:58:16 13.1 C 8.22 g/m*3 13.1 C 0 km/h
266 26-04-2009 05:10:16 13 C 8.17 g/m*3 13 C 0 km/h
267 26-04-2009 05:22:16 12.9 C 8.23 g/m*3 12.9 C 0 km/h
268 26-04-2009 05:34:16 12.8 C 8.29 g/m*3 12.8 C 0 km/h
269 26-04-2009 05:46:16 12.8 C 8.18 g/m*3 12.8 C 0 km/h
270 26-04-2009 05:58:16 12.6 C 8.19 g/m*3 12.6 C 0 km/h
271 26-04-2009 06:10:16 12.4 C 8.09 g/m*3 12.4 C 0 km/h
272 26-04-2009 06:22:16 12.2 C 8.2 g/m*3 12.2 C 0 km/h
273 26-04-2009 06:34:16 12 C 8.1 g/m*3 12 C 0 km/h
274 26-04-2009 06:46:15 11.9 C 8.26 g/m*3 11.9 C 0 km/h
275 26-04-2009 06:58:15 11.7 C 8.37 g/m*3 11.7 C 0 km/h
Sensor: Nr:Datum:Temp:Abs-Feuchte:Windchill:Wind:
Aussen-T/F 276 26-04-2009 07:10:14 11.8 C 8.42 g/m*3 11.8 C 0 km/h
277 26-04-2009 07:22:14 11.8 C 8.42 g/m*3 11.8 C 0 km/h
278 26-04-2009 07:34:14 11.8 C 8.42 g/m*3 11.8 C 0 km/h
279 26-04-2009 07:46:14 12.2 C 8.63 g/m*3 12.2 C 0 km/h
280 26-04-2009 07:58:14 12.3 C 8.58 g/m*3 12.3 C 0 km/h
281 26-04-2009 08:10:13 12.6 C 8.63 g/m*3 12.6 C 0 km/h
282 26-04-2009 08:22:14 12.9 C 8.68 g/m*3 12.9 C 0 km/h
283 26-04-2009 08:34:13 13.3 C 8.78 g/m*3 13.3 C 0 km/h
284 26-04-2009 08:46:14 13.6 C 8.71 g/m*3 13.6 C 0 km/h
285 26-04-2009 08:58:14 14.2 C 8.55 g/m*3 14.2 C 0 km/h
286 26-04-2009 09:10:13 14.9 C 8.54 g/m*3 14.9 C 0 km/h
287 26-04-2009 09:22:13 15.1 C 8.39 g/m*3 15.1 C 0 km/h
288 26-04-2009 09:34:13 15.9 C 8.53 g/m*3 15.9 C 0 km/h
289 26-04-2009 09:46:13 16.4 C 8.23 g/m*3 16.4 C 0 km/h
290 26-04-2009 09:58:13 16.8 C 8.29 g/m*3 16.8 C 0 km/h
291 26-04-2009 10:10:12 17.2 C 8.05 g/m*3 17.2 C 0 km/h
292 26-04-2009 10:22:13 17.2 C 8.05 g/m*3 17.2 C 0 km/h
293 26-04-2009 10:34:13 17.5 C 8.2 g/m*3 17.5 C 0 km/h
294 26-04-2009 10:46:12 17.1 C 8.01 g/m*3 17.1 C 0 km/h
295 26-04-2009 10:58:12 17.7 C 8.3 g/m*3 17.7 C 0 km/h
296 26-04-2009 11:10:12 17.8 C 8.2 g/m*3 17.8 C 0 km/h
297 26-04-2009 11:22:12 18.4 C 8.18 g/m*3 18.4 C 0 km/h
298 26-04-2009 11:34:12 19.1 C 7.54 g/m*3 19.1 C 0 km/h
299 26-04-2009 11:46:11 20.1 C 7.47 g/m*3 20.1 C 0 km/h
300 26-04-2009 11:58:11 20.4 C 7.08 g/m*3 20.4 C 0 km/h
Sensor: Nr:Datum:Temp:Abs-Feuchte:Windchill:Wind:
Aussen-T/F 301 26-04-2009 12:10:12 20.5 C 6.94 g/m*3 20.5 C 0 km/h
302 26-04-2009 12:22:11 21.1 C 6.82 g/m*3 21.1 C 0 km/h
303 26-04-2009 12:34:11 21.8 C 6.72 g/m*3 21.8 C 0 km/h
304 26-04-2009 12:46:11 22.3 C 6.52 g/m*3 22.3 C 0 km/h
305 26-04-2009 12:58:11 22 C 6.21 g/m*3 22 C 0 km/h
306 26-04-2009 13:10:11 22.6 C 6.63 g/m*3 22.6 C 0 km/h
307 26-04-2009 13:22:11 23.5 C 6.34 g/m*3 23.5 C 0 km/h
308 26-04-2009 13:34:10 24.3 C 6.2 g/m*3 24.3 C 0 km/h
309 26-04-2009 13:46:11 24.1 C 5.91 g/m*3 24.1 C 0 km/h
310 26-04-2009 13:58:11 24.3 C 6.2 g/m*3 24.3 C 0 km/h
311 26-04-2009 14:10:10 22.8 C 5.49 g/m*3 22.8 C 0 km/h
312 26-04-2009 14:22:10 23.9 C 5.62 g/m*3 23.9 C 0 km/h
313 26-04-2009 14:34:10 24.6 C 5.85 g/m*3 24.6 C 0 km/h
314 26-04-2009 14:46:10 25.4 C 5.89 g/m*3 25.4 C 0 km/h
315 26-04-2009 14:58:11 25.5 C 5.68 g/m*3 25.5 C 0 km/h
316 26-04-2009 15:10:09 25.1 C 5.56 g/m*3 25.1 C 0 km/h
317 26-04-2009 15:22:10 25.2 C 5.82 g/m*3 25.2 C 0 km/h
318 26-04-2009 15:34:10 25.7 C 5.51 g/m*3 25.7 C 0 km/h
319 26-04-2009 15:46:09 24.7 C 5.66 g/m*3 24.7 C 0 km/h
320 26-04-2009 15:58:09 24 C 5.66 g/m*3 24 C 0 km/h
321 26-04-2009 16:10:10 23.5 C 5.71 g/m*3 23.5 C 0 km/h
322 26-04-2009 16:22:09 26 C 5.6 g/m*3 26 C 0 km/h
323 26-04-2009 16:34:09 27.5 C 5.29 g/m*3 27.5 C 0 km/h
324 26-04-2009 16:46:08 26.5 C 5.01 g/m*3 26.5 C 0 km/h
325 26-04-2009 16:58:08 27.7 C 5.35 g/m*3 27.7 C 0 km/h
Sensor: Nr:Datum:Temp:Abs-Feuchte:Windchill:Wind:
Aussen-T/F 326 26-04-2009 17:10:09 26.8 C 5.09 g/m*3 26.8 C 0 km/h
327 26-04-2009 17:22:08 28 C 5.44 g/m*3 28 C 0 km/h
328 26-04-2009 17:34:08 28.2 C 5.5 g/m*3 28.2 C 0 km/h
329 26-04-2009 17:46:08 29.5 C 5.9 g/m*3 29.5 C 0 km/h
330 26-04-2009 17:58:08 28.5 C 5.59 g/m*3 28.5 C 0 km/h
331 26-04-2009 18:10:08 26.7 C 5.06 g/m*3 26.7 C 0 km/h
332 26-04-2009 18:22:08 27.1 C 5.18 g/m*3 27.1 C 0 km/h
333 26-04-2009 18:34:07 26.4 C 4.98 g/m*3 26.4 C 0 km/h
334 26-04-2009 18:46:08 25.1 C 5.79 g/m*3 25.1 C 0 km/h
335 26-04-2009 18:58:08 24.1 C 5.69 g/m*3 24.1 C 0 km/h
336 26-04-2009 19:10:07 23.6 C 6.17 g/m*3 23.6 C 0 km/h
337 26-04-2009 19:22:07 22.7 C 6.26 g/m*3 22.7 C 0 km/h
338 26-04-2009 19:34:07 22.2 C 6.28 g/m*3 22.2 C 0 km/h
339 26-04-2009 19:46:07 21.8 C 6.52 g/m*3 21.8 C 0 km/h
340 26-04-2009 19:58:07 21.3 C 6.52 g/m*3 21.3 C 0 km/h
341 26-04-2009 20:10:06 21.1 C 6.63 g/m*3 21.1 C 0 km/h
342 26-04-2009 20:22:07 20.7 C 6.84 g/m*3 20.7 C 0 km/h
343 26-04-2009 20:34:07 20.2 C 6.82 g/m*3 20.2 C 0 km/h
344 26-04-2009 20:46:06 20.1 C 7.13 g/m*3 20.1 C 0 km/h
345 26-04-2009 20:58:06 19.6 C 7.09 g/m*3 19.6 C 0 km/h
346 26-04-2009 21:10:06 19.5 C 7.05 g/m*3 19.5 C 0 km/h
347 26-04-2009 21:22:06 19.3 C 7.13 g/m*3 19.3 C 0 km/h
348 26-04-2009 21:34:06 19.2 C 7.42 g/m*3 19.2 C 0 km/h
349 26-04-2009 21:46:06 18.8 C 7.73 g/m*3 18.8 C 0 km/h
350 26-04-2009 21:58:07 17.7 C 8.6 g/m*3 17.7 C 0 km/h
Sensor: Nr:Datum:Temp:Abs-Feuchte:Windchill:Wind:
Aussen-T/F 351 26-04-2009 22:10:05 16.6 C 9.46 g/m*3 16.6 C 0 km/h
352 26-04-2009 22:22:06 16.3 C 10.13 g/m*3 16.3 C 0 km/h
353 26-04-2009 22:34:06 15.9 C 9.62 g/m*3 15.9 C 0 km/h
354 26-04-2009 22:47:05 15.6 C 9.97 g/m*3 15.6 C 0 km/h
355 26-04-2009 22:59:05 15.4 C 10.25 g/m*3 15.4 C 0 km/h
356 26-04-2009 23:11:05 15.4 C 10.25 g/m*3 15.4 C 0 km/h
357 26-04-2009 23:23:05 15.6 C 10.24 g/m*3 15.6 C 0 km/h
358 26-04-2009 23:35:05 15.8 C 9.83 g/m*3 15.8 C 0 km/h
359 26-04-2009 23:47:06 16 C 9.67 g/m*3 16 C 0 km/h
360 26-04-2009 23:59:06 15.9 C 9.75 g/m*3 15.9 C 0 km/h

Legende:
   Min
   Max


Maximal/Minimal-Werte vom 24.04.2009 - 26.04.2009

Sensor Min Max Avg
Temp
(Aussen-T/F)
6.3 °C
25-04-2009  06:57:25
29.5 °C
26-04-2009  17:46:08
15.7 °C
Abs-Feuchte
(Aussen-T/F)
3.3 g/m*3
24-04-2009  13:20:28
10.25 g/m*3
26-04-2009  22:59:05
6.44 g/m*3
Windchill
(Aussen-T/F)
6.3 C
25-04-2009  06:57:25
29.5 C
26-04-2009  17:46:08
15.66 C

Die Daten stammen von einer Davis Vantage Pro 2 Wetter-Station und werden unter Linux mit der Software wview2wettercgi und aufbereitet. Alle Angaben erfolgen ohne Gewähr für ihre Vollständigkeit oder Richtigkeit.
Kontakt: Rainer Krienke krienke@uni-koblenz.de . Meine Webseiten an der Uni Koblenz oder privat.
Version: $Revision: 0.78 $